Time;durP1;ratioP1;P1;durP2;ratioP2;P2;SDS_P1;SDS_P2;PMS_P1;PMS_P2;Temp;Humidity;BMP_temperature;BMP_pressure;BME280_temperature;BME280_humidity;BME280_pressure;Samples;Min_cycle;Max_cycle;Signal;HPM_P1;HPM_P2
2023/03/18 00:00:27;;;;;;;10.65;5.35;;;;;;;;;;7384216;19;20006;-74
2023/03/18 00:02:52;;;;;;;8.93;5.07;;;;;;;;;;7386253;19;20020;-74
2023/03/18 00:05:18;;;;;;;8.88;5.25;;;;;;;;;;7386272;19;20102;-76
2023/03/18 00:07:48;;;;;;;11.23;5.57;;;;;;;;;;7386923;19;20002;-74
2023/03/18 00:10:13;;;;;;;14.05;6.63;;;;;;;;;;7389943;19;20059;-75
2023/03/18 00:12:40;;;;;;;12.77;6.78;;;;;;;;;;7394072;19;20041;-73
2023/03/18 00:15:08;;;;;;;9.30;5.65;;;;;;;;;;7394555;19;19995;-74
2023/03/18 00:17:34;;;;;;;10.73;6.00;;;;;;;;;;7393305;19;19999;-73
2023/03/18 00:20:04;;;;;;;10.20;6.05;;;;;;;;;;7392345;19;20009;-75
2023/03/18 00:22:31;;;;;;;14.90;6.32;;;;;;;;;;7393179;19;19994;-72
2023/03/18 00:24:57;;;;;;;13.65;6.60;;;;;;;;;;7393212;19;19998;-74
2023/03/18 00:27:22;;;;;;;10.93;6.22;;;;;;;;;;7392701;19;20531;-74
2023/03/18 00:29:48;;;;;;;13.05;7.03;;;;;;;;;;7391550;19;20005;-73
2023/03/18 00:32:14;;;;;;;14.15;7.57;;;;;;;;;;7392155;19;20504;-74
2023/03/18 00:34:40;;;;;;;12.60;7.40;;;;;;;;;;7392402;19;20072;-74
2023/03/18 00:37:07;;;;;;;16.13;7.78;;;;;;;;;;7393308;19;20470;-74
2023/03/18 00:39:32;;;;;;;14.10;8.38;;;;;;;;;;7392169;19;20460;-75
2023/03/18 00:42:00;;;;;;;15.68;8.32;;;;;;;;;;7389968;19;20006;-74
2023/03/18 00:44:26;;;;;;;13.50;8.05;;;;;;;;;;7395667;19;20002;-75
2023/03/18 00:46:51;;;;;;;15.25;8.32;;;;;;;;;;7391938;19;19999;-73
2023/03/18 00:49:17;;;;;;;17.73;9.25;;;;;;;;;;7390132;19;20468;-74
2023/03/18 00:51:42;;;;;;;22.77;9.13;;;;;;;;;;7394058;19;20007;-73
2023/03/18 00:54:11;;;;;;;17.75;9.07;;;;;;;;;;7396740;19;20054;-75
2023/03/18 00:56:37;;;;;;;14.25;8.27;;;;;;;;;;7395296;19;20015;-73
2023/03/18 00:59:03;;;;;;;15.70;9.15;;;;;;;;;;7395354;19;20003;-75
2023/03/18 01:01:30;;;;;;;14.95;8.20;;;;;;;;;;7394668;19;20456;-74
2023/03/18 01:03:55;;;;;;;16.77;7.97;;;;;;;;;;7395353;19;20008;-75
2023/03/18 01:06:25;;;;;;;18.17;8.48;;;;;;;;;;7394375;19;20006;-75
2023/03/18 01:08:50;;;;;;;18.17;8.40;;;;;;;;;;7392005;19;20002;-74
2023/03/18 01:11:16;;;;;;;15.25;7.65;;;;;;;;;;7388915;19;20228;-74
2023/03/18 01:13:41;;;;;;;19.95;9.02;;;;;;;;;;7391560;19;20002;-74
2023/03/18 01:16:08;;;;;;;28.80;10.15;;;;;;;;;;7391418;19;20009;-75
2023/03/18 01:18:35;;;;;;;18.23;9.43;;;;;;;;;;7391061;19;20006;-75
2023/03/18 01:21:00;;;;;;;18.15;9.80;;;;;;;;;;7385873;19;20293;-75
2023/03/18 01:23:26;;;;;;;15.65;8.95;;;;;;;;;;7390194;19;20005;-75
2023/03/18 01:25:52;;;;;;;17.73;9.38;;;;;;;;;;7390914;19;20010;-75
2023/03/18 01:28:19;;;;;;;17.70;10.20;;;;;;;;;;7390758;19;20058;-75
2023/03/18 01:30:45;;;;;;;21.20;10.52;;;;;;;;;;7388881;19;20746;-75
2023/03/18 01:33:11;;;;;;;17.55;9.98;;;;;;;;;;7390696;19;20007;-75
2023/03/18 01:35:37;;;;;;;21.70;10.60;;;;;;;;;;7390641;19;20002;-75
2023/03/18 01:38:04;;;;;;;18.45;10.88;;;;;;;;;;7390485;19;20344;-75
2023/03/18 01:40:32;;;;;;;16.67;10.77;;;;;;;;;;7388703;19;19998;-74
2023/03/18 01:43:13;;;;;;;18.63;10.40;;;;;;;;;;7390572;19;20003;-75
2023/03/18 01:45:39;;;;;;;;;;;;;;;;;;7391376;19;20028;-75
2023/03/18 01:48:04;;;;;;;15.65;8.45;;;;;;;;;;7390294;19;19911;-75
2023/03/18 01:50:33;;;;;;;21.23;10.07;;;;;;;;;;7388868;19;20482;-75
2023/03/18 01:53:01;;;;;;;18.63;9.70;;;;;;;;;;7394517;19;19998;-75
2023/03/18 01:55:30;;;;;;;21.00;10.02;;;;;;;;;;7390705;19;20352;-75
2023/03/18 01:57:56;;;;;;;19.77;10.38;;;;;;;;;;7390132;19;20491;-75
2023/03/18 02:00:22;;;;;;;17.30;9.98;;;;;;;;;;7388524;19;20013;-75
2023/03/18 02:02:49;;;;;;;17.42;9.52;;;;;;;;;;7390017;19;20099;-75
2023/03/18 02:05:17;;;;;;;19.65;10.20;;;;;;;;;;7389821;19;20500;-76
2023/03/18 02:07:44;;;;;;;17.05;10.18;;;;;;;;;;7391970;19;20006;-75
2023/03/18 02:10:21;;;;;;;16.90;9.65;;;;;;;;;;7388104;19;20617;-75
2023/03/18 02:12:57;;;;;;;18.15;9.85;;;;;;;;;;7389502;19;20007;-75
2023/03/18 02:15:24;;;;;;;15.93;9.25;;;;;;;;;;7389119;19;20428;-75
2023/03/18 02:17:58;;;;;;;19.17;10.15;;;;;;;;;;7388882;19;20480;-75
2023/03/18 02:20:51;;;;;;;18.92;10.52;;;;;;;;;;7391502;19;20304;-74
2023/03/18 02:23:35;;;;;;;20.75;10.02;;;;;;;;;;7389242;19;20042;-75
2023/03/18 02:26:19;;;;;;;22.60;9.93;;;;;;;;;;7389174;19;20364;-73
2023/03/18 02:28:45;;;;;;;14.93;9.10;;;;;;;;;;7387963;19;19999;-74
2023/03/18 02:31:14;;;;;;;19.52;10.40;;;;;;;;;;7386946;19;20070;-75
2023/03/18 02:33:41;;;;;;;17.88;9.93;;;;;;;;;;7388502;19;20002;-74
2023/03/18 02:36:20;;;;;;;16.92;10.77;;;;;;;;;;7388095;19;20006;-74
2023/03/18 02:38:46;;;;;;;18.48;10.25;;;;;;;;;;7388556;19;20002;-75
2023/03/18 02:41:21;;;;;;;20.75;10.52;;;;;;;;;;7387034;19;20015;-75
2023/03/18 02:43:48;;;;;;;14.98;9.50;;;;;;;;;;7388481;19;20003;-75
2023/03/18 02:46:29;;;;;;;18.20;9.40;;;;;;;;;;7388433;19;20014;-76
2023/03/18 02:48:56;;;;;;;18.77;10.52;;;;;;;;;;7387883;19;20002;-75
2023/03/18 02:51:22;;;;;;;20.05;10.63;;;;;;;;;;7385516;19;20066;-76
2023/03/18 02:53:47;;;;;;;16.65;9.95;;;;;;;;;;7386638;19;20006;-75
2023/03/18 02:56:13;;;;;;;19.52;10.90;;;;;;;;;;7387726;19;20487;-75
2023/03/18 02:58:39;;;;;;;20.50;11.20;;;;;;;;;;7388185;19;20002;-75
2023/03/18 03:01:07;;;;;;;16.00;10.18;;;;;;;;;;7385426;19;20043;-75
2023/03/18 03:03:33;;;;;;;18.20;10.52;;;;;;;;;;7387892;19;20374;-76
2023/03/18 03:05:59;;;;;;;24.15;10.57;;;;;;;;;;7387397;19;20400;-74
2023/03/18 03:08:25;;;;;;;15.38;10.02;;;;;;;;;;7387614;19;20016;-75
2023/03/18 03:10:51;;;;;;;17.98;10.32;;;;;;;;;;7386107;19;20002;-75
2023/03/18 03:13:17;;;;;;;13.95;8.35;;;;;;;;;;7387150;19;20002;-73
2023/03/18 03:15:42;;;;;;;20.08;8.82;;;;;;;;;;7388973;19;20434;-75
2023/03/18 03:18:09;;;;;;;15.45;8.10;;;;;;;;;;7387863;19;19998;-75
2023/03/18 03:20:36;;;;;;;16.65;8.82;;;;;;;;;;7384606;19;20002;-74
2023/03/18 03:23:06;;;;;;;14.48;8.25;;;;;;;;;;7387164;19;20020;-75
2023/03/18 03:25:31;;;;;;;19.77;9.55;;;;;;;;;;7386854;19;20009;-76
2023/03/18 03:27:57;;;;;;;18.23;8.60;;;;;;;;;;7386750;19;20007;-74
2023/03/18 03:30:23;;;;;;;20.23;9.20;;;;;;;;;;7385755;19;20423;-76
2023/03/18 03:32:48;;;;;;;16.55;8.48;;;;;;;;;;7386506;19;20007;-76
2023/03/18 03:35:16;;;;;;;20.38;9.80;;;;;;;;;;7386021;19;20139;-75
2023/03/18 03:37:42;;;;;;;19.95;9.65;;;;;;;;;;7386295;19;20002;-76
2023/03/18 03:40:14;;;;;;;18.88;8.93;;;;;;;;;;7384469;19;20006;-75
2023/03/18 03:42:39;;;;;;;22.40;9.93;;;;;;;;;;7386881;19;19999;-76
2023/03/18 03:45:06;;;;;;;19.98;9.25;;;;;;;;;;7389150;19;20282;-74
2023/03/18 03:47:32;;;;;;;23.17;9.80;;;;;;;;;;7393815;19;20062;-75
2023/03/18 03:49:57;;;;;;;20.58;9.70;;;;;;;;;;7396939;19;20400;-75
2023/03/18 03:52:23;;;;;;;18.63;9.18;;;;;;;;;;7394002;19;20054;-74
2023/03/18 03:54:49;;;;;;;25.60;9.93;;;;;;;;;;7394235;19;20399;-75
2023/03/18 03:57:15;;;;;;;20.77;8.90;;;;;;;;;;7394442;19;19998;-75
2023/03/18 03:59:41;;;;;;;12.52;8.10;;;;;;;;;;7393227;19;20003;-74
2023/03/18 04:02:06;;;;;;;19.52;9.35;;;;;;;;;;7391001;19;20007;-75
2023/03/18 04:04:32;;;;;;;18.85;9.68;;;;;;;;;;7393803;19;20002;-75
2023/03/18 04:06:57;;;;;;;13.98;8.75;;;;;;;;;;7396050;19;20483;-75
2023/03/18 04:09:23;;;;;;;17.00;9.70;;;;;;;;;;7393246;19;20006;-75
2023/03/18 04:11:48;;;;;;;17.45;8.23;;;;;;;;;;7393831;19;20109;-75
2023/03/18 04:14:15;;;;;;;18.65;8.70;;;;;;;;;;7393369;19;19999;-74
2023/03/18 04:16:40;;;;;;;16.95;9.10;;;;;;;;;;7393033;19;20010;-74
2023/03/18 04:19:06;;;;;;;19.50;9.65;;;;;;;;;;7393073;19;19998;-73
2023/03/18 04:21:31;;;;;;;18.85;9.65;;;;;;;;;;7388839;19;20079;-75
2023/03/18 04:23:57;;;;;;;18.40;9.57;;;;;;;;;;7393524;19;19999;-75
2023/03/18 04:26:27;;;;;;;15.63;9.18;;;;;;;;;;7393117;19;20009;-75
2023/03/18 04:28:52;;;;;;;15.87;9.93;;;;;;;;;;7393608;19;20007;-75
2023/03/18 04:31:17;;;;;;;15.70;9.40;;;;;;;;;;7389970;19;19999;-75
2023/03/18 04:33:43;;;;;;;19.27;10.05;;;;;;;;;;7392447;19;20011;-75
2023/03/18 04:36:09;;;;;;;17.30;9.57;;;;;;;;;;7393353;19;19995;-76
2023/03/18 04:38:35;;;;;;;21.05;10.32;;;;;;;;;;7392533;19;20006;-76
2023/03/18 04:41:00;;;;;;;18.40;10.80;;;;;;;;;;7387774;19;20045;-70
2023/03/18 04:43:26;;;;;;;20.08;10.02;;;;;;;;;;7392162;19;20007;-70
2023/03/18 04:45:51;;;;;;;20.73;11.35;;;;;;;;;;7391862;19;20005;-71
2023/03/18 04:48:17;;;;;;;25.02;10.80;;;;;;;;;;7395983;19;20366;-70
2023/03/18 04:50:42;;;;;;;18.30;11.30;;;;;;;;;;7390343;19;20111;-71
2023/03/18 04:53:08;;;;;;;18.48;10.48;;;;;;;;;;7391811;19;19999;-71
2023/03/18 04:55:33;;;;;;;18.40;10.57;;;;;;;;;;7391571;19;20031;-71
2023/03/18 04:57:59;;;;;;;23.02;12.02;;;;;;;;;;7390221;19;19995;-71
2023/03/18 05:00:24;;;;;;;20.98;11.32;;;;;;;;;;7387766;19;20374;-71
2023/03/18 05:02:50;;;;;;;18.02;11.45;;;;;;;;;;7391326;19;19999;-71
2023/03/18 05:05:15;;;;;;;23.15;10.90;;;;;;;;;;7391564;19;20463;-70
2023/03/18 05:07:43;;;;;;;20.67;11.13;;;;;;;;;;7391482;19;19995;-71
2023/03/18 05:10:09;;;;;;;21.13;11.13;;;;;;;;;;7390102;19;20003;-71
2023/03/18 05:12:35;;;;;;;17.55;10.93;;;;;;;;;;7390901;19;20002;-72
2023/03/18 05:15:01;;;;;;;23.83;11.73;;;;;;;;;;7390845;19;20109;-70
2023/03/18 05:17:27;;;;;;;22.92;11.75;;;;;;;;;;7391018;19;20006;-72
2023/03/18 05:19:53;;;;;;;27.88;11.65;;;;;;;;;;7390441;19;20070;-70
2023/03/18 05:22:20;;;;;;;21.83;11.90;;;;;;;;;;7394562;19;20006;-70
2023/03/18 05:24:46;;;;;;;21.48;11.82;;;;;;;;;;7389088;19;20010;-71
2023/03/18 05:27:13;;;;;;;24.67;11.68;;;;;;;;;;7390993;19;19998;-71
2023/03/18 05:29:40;;;;;;;21.23;12.30;;;;;;;;;;7390135;19;20046;-71
2023/03/18 05:32:06;;;;;;;25.90;12.25;;;;;;;;;;7389906;19;20007;-71
2023/03/18 05:34:32;;;;;;;26.33;11.55;;;;;;;;;;7390776;19;20582;-71
2023/03/18 05:36:58;;;;;;;22.27;11.60;;;;;;;;;;7390406;19;19998;-71
2023/03/18 05:39:24;;;;;;;20.40;11.27;;;;;;;;;;7390099;19;20469;-71
2023/03/18 05:41:49;;;;;;;23.65;11.75;;;;;;;;;;7387920;19;20410;-71
2023/03/18 05:44:15;;;;;;;26.30;11.93;;;;;;;;;;7392781;19;20022;-72
2023/03/18 05:46:41;;;;;;;22.80;12.30;;;;;;;;;;7388287;19;20009;-71
2023/03/18 05:49:07;;;;;;;19.65;11.95;;;;;;;;;;7389862;19;20037;-71
2023/03/18 05:51:33;;;;;;;23.80;11.45;;;;;;;;;;7388070;19;20018;-71
2023/03/18 05:53:58;;;;;;;21.60;12.15;;;;;;;;;;7389882;19;20487;-72
2023/03/18 05:56:24;;;;;;;23.30;11.80;;;;;;;;;;7391780;19;20350;-71
2023/03/18 05:58:50;;;;;;;26.75;11.70;;;;;;;;;;7393940;19;20008;-71
2023/03/18 06:01:16;;;;;;;21.50;11.15;;;;;;;;;;7390495;19;20006;-71
2023/03/18 06:03:42;;;;;;;19.75;11.73;;;;;;;;;;7393511;19;20447;-71
2023/03/18 06:06:08;;;;;;;27.65;12.57;;;;;;;;;;7317320;19;20010;-71
2023/03/18 06:08:33;;;;;;;22.02;13.23;;;;;;;;;;7392631;19;20087;-71
2023/03/18 06:10:58;;;;;;;25.35;13.40;;;;;;;;;;7391621;19;20372;-71
2023/03/18 06:13:24;;;;;;;20.23;12.35;;;;;;;;;;7392793;19;20011;-71
2023/03/18 06:15:55;;;;;;;22.50;12.43;;;;;;;;;;7393202;19;19999;-71
2023/03/18 06:18:21;;;;;;;20.40;12.55;;;;;;;;;;7391562;19;20372;-72
2023/03/18 06:20:46;;;;;;;19.55;11.98;;;;;;;;;;7391900;19;20022;-71
2023/03/18 06:23:13;;;;;;;20.30;12.00;;;;;;;;;;7392771;19;20498;-70
2023/03/18 06:25:40;;;;;;;20.98;11.45;;;;;;;;;;7393181;19;19998;-69
2023/03/18 06:28:06;;;;;;;17.67;10.93;;;;;;;;;;7393211;19;20010;-71
2023/03/18 06:30:32;;;;;;;18.48;10.80;;;;;;;;;;7392065;19;19999;-69
2023/03/18 06:32:58;;;;;;;19.25;11.00;;;;;;;;;;7393946;19;20039;-70
2023/03/18 06:35:25;;;;;;;19.63;10.68;;;;;;;;;;7389369;19;19994;-69
2023/03/18 06:37:52;;;;;;;21.10;11.63;;;;;;;;;;7389238;19;20524;-71
2023/03/18 06:40:17;;;;;;;20.27;10.63;;;;;;;;;;7387546;19;20002;-71
2023/03/18 06:42:43;;;;;;;21.70;11.60;;;;;;;;;;7389555;19;20006;-71
2023/03/18 06:45:09;;;;;;;25.00;12.48;;;;;;;;;;7392103;19;19999;-71
2023/03/18 06:47:35;;;;;;;20.00;11.43;;;;;;;;;;7391434;19;19999;-72
2023/03/18 06:50:00;;;;;;;18.70;11.88;;;;;;;;;;7390839;19;20366;-73
2023/03/18 06:52:27;;;;;;;19.48;11.02;;;;;;;;;;7391313;19;20009;-72
2023/03/18 06:54:52;;;;;;;23.75;11.85;;;;;;;;;;7388677;19;20077;-70
2023/03/18 06:57:20;;;;;;;19.38;12.02;;;;;;;;;;7388530;19;20112;-71
2023/03/18 06:59:46;;;;;;;29.85;12.35;;;;;;;;;;7388531;19;20002;-72
2023/03/18 07:02:12;;;;;;;16.55;10.77;;;;;;;;;;7387276;19;20003;-72
2023/03/18 07:04:37;;;;;;;20.38;9.93;;;;;;;;;;7390903;19;19998;-71
2023/03/18 07:07:04;;;;;;;15.82;8.82;;;;;;;;;;7391232;19;20034;-69
2023/03/18 07:09:30;;;;;;;15.98;8.05;;;;;;;;;;7389991;19;19997;-70
2023/03/18 07:11:56;;;;;;;19.98;8.90;;;;;;;;;;7390332;19;20062;-71
2023/03/18 07:14:24;;;;;;;16.15;8.18;;;;;;;;;;7390605;19;20282;-72
2023/03/18 07:16:49;;;;;;;14.73;8.00;;;;;;;;;;7389005;19;20036;-71
2023/03/18 07:19:16;;;;;;;14.55;7.55;;;;;;;;;;7389200;19;20410;-71
2023/03/18 07:21:42;;;;;;;17.23;8.23;;;;;;;;;;7382260;19;20360;-69
2023/03/18 07:24:08;;;;;;;16.52;7.53;;;;;;;;;;7383774;19;20003;-70
2023/03/18 07:26:34;;;;;;;11.55;7.50;;;;;;;;;;7381788;19;20010;-71
2023/03/18 07:28:59;;;;;;;12.32;6.85;;;;;;;;;;7388192;19;19994;-72
2023/03/18 07:31:25;;;;;;;13.98;6.72;;;;;;;;;;7316874;19;20010;-71
2023/03/18 07:33:50;;;;;;;11.45;7.05;;;;;;;;;;7386857;19;20066;-69
2023/03/18 07:36:16;;;;;;;10.65;6.32;;;;;;;;;;7387093;19;19999;-70
2023/03/18 07:38:41;;;;;;;10.93;6.15;;;;;;;;;;7384310;19;19994;-70
2023/03/18 07:41:07;;;;;;;13.07;6.85;;;;;;;;;;7378852;19;20066;-69
2023/03/18 07:43:32;;;;;;;12.00;6.63;;;;;;;;;;7385185;19;20685;-70
2023/03/18 07:45:58;;;;;;;10.82;6.40;;;;;;;;;;7378498;19;20014;-70
2023/03/18 07:48:23;;;;;;;10.60;6.13;;;;;;;;;;7387798;19;19998;-70
2023/03/18 07:50:49;;;;;;;9.73;6.32;;;;;;;;;;7386901;19;20009;-70
2023/03/18 07:53:15;;;;;;;11.02;6.75;;;;;;;;;;7389241;19;20007;-71
2023/03/18 07:55:40;;;;;;;10.68;6.22;;;;;;;;;;7392038;19;20543;-67
2023/03/18 07:58:07;;;;;;;9.50;5.55;;;;;;;;;;7391478;19;20003;-65
2023/03/18 08:00:33;;;;;;;12.27;5.22;;;;;;;;;;7388703;19;19998;-65
2023/03/18 08:02:58;;;;;;;10.00;5.57;;;;;;;;;;7390118;19;20073;-70
2023/03/18 08:05:24;;;;;;;9.52;5.68;;;;;;;;;;7386774;19;20014;-66
2023/03/18 08:07:49;;;;;;;11.15;6.03;;;;;;;;;;7388625;19;20009;-66
2023/03/18 08:10:15;;;;;;;8.50;5.15;;;;;;;;;;7386646;19;20392;-68
2023/03/18 08:12:41;;;;;;;9.65;5.47;;;;;;;;;;7389775;19;20160;-67
2023/03/18 08:15:08;;;;;;;9.55;5.65;;;;;;;;;;7389543;19;19998;-69
2023/03/18 08:17:33;;;;;;;12.48;5.82;;;;;;;;;;7385541;19;20003;-69
2023/03/18 08:19:58;;;;;;;9.85;5.70;;;;;;;;;;7386230;19;20014;-69
2023/03/18 08:22:24;;;;;;;9.02;5.85;;;;;;;;;;7386914;19;20127;-69
2023/03/18 08:24:50;;;;;;;11.38;5.90;;;;;;;;;;7381431;19;20003;-69
2023/03/18 08:27:16;;;;;;;12.82;6.53;;;;;;;;;;7384898;19;20007;-69
2023/03/18 08:29:42;;;;;;;10.57;5.68;;;;;;;;;;7383542;19;20007;-70
2023/03/18 08:32:08;;;;;;;9.43;5.65;;;;;;;;;;7393025;19;20172;-70
2023/03/18 08:34:34;;;;;;;9.88;6.20;;;;;;;;;;7396005;19;20384;-70
2023/03/18 08:37:00;;;;;;;10.98;6.32;;;;;;;;;;7390725;19;20401;-68
2023/03/18 08:39:25;;;;;;;10.38;5.55;;;;;;;;;;7393178;19;20018;-70
2023/03/18 08:41:51;;;;;;;11.13;6.50;;;;;;;;;;7389441;19;19999;-69
2023/03/18 08:44:16;;;;;;;30.15;9.13;;;;;;;;;;7397139;19;20014;-69
2023/03/18 08:47:03;;;;;;;11.95;6.40;;;;;;;;;;7395814;19;19998;-69
2023/03/18 08:49:28;;;;;;;13.10;5.97;;;;;;;;;;7392884;19;20005;-69
2023/03/18 08:51:54;;;;;;;9.48;5.40;;;;;;;;;;7392019;19;20054;-69
2023/03/18 08:54:20;;;;;;;8.65;5.10;;;;;;;;;;7390562;19;19998;-69
2023/03/18 08:56:46;;;;;;;11.48;5.70;;;;;;;;;;7391994;19;20005;-69
2023/03/18 08:59:11;;;;;;;8.88;5.13;;;;;;;;;;7392132;19;19998;-70
2023/03/18 09:01:37;;;;;;;7.82;4.72;;;;;;;;;;7389857;19;20018;-70
2023/03/18 09:04:02;;;;;;;7.63;4.75;;;;;;;;;;7392211;19;19995;-69
2023/03/18 09:06:28;;;;;;;8.05;3.83;;;;;;;;;;7395352;19;20010;-68
2023/03/18 09:08:54;;;;;;;8.55;4.43;;;;;;;;;;7396325;19;20009;-70
2023/03/18 09:11:19;;;;;;;6.35;2.85;;;;;;;;;;7389118;19;20431;-70
2023/03/18 09:13:44;;;;;;;5.82;2.47;;;;;;;;;;7391838;19;20480;-70
2023/03/18 09:16:10;;;;;;;4.32;2.13;;;;;;;;;;7390366;19;20010;-70
2023/03/18 09:18:35;;;;;;;7.03;2.60;;;;;;;;;;7392143;19;20002;-70
2023/03/18 09:21:04;;;;;;;9.73;2.47;;;;;;;;;;7388937;19;20006;-68
2023/03/18 09:23:30;;;;;;;4.75;2.22;;;;;;;;;;7391244;19;20376;-70
2023/03/18 09:25:56;;;;;;;5.25;2.78;;;;;;;;;;7390925;19;20005;-70
2023/03/18 09:28:21;;;;;;;5.75;2.22;;;;;;;;;;7391357;19;20425;-69
2023/03/18 09:30:47;;;;;;;5.18;2.30;;;;;;;;;;7388603;19;20002;-70
2023/03/18 09:33:12;;;;;;;6.22;2.53;;;;;;;;;;7392947;19;20305;-70
2023/03/18 09:35:38;;;;;;;4.05;2.08;;;;;;;;;;7391075;19;20003;-69
2023/03/18 09:38:05;;;;;;;8.70;2.85;;;;;;;;;;7393797;19;20050;-70
2023/03/18 09:40:36;;;;;;;5.20;2.35;;;;;;;;;;7388181;19;20006;-69
2023/03/18 09:43:23;;;;;;;5.07;2.67;;;;;;;;;;7388804;19;20018;-70
2023/03/18 09:45:52;;;;;;;5.25;2.30;;;;;;;;;;7388490;19;20002;-70
2023/03/18 09:48:23;;;;;;;8.30;2.15;;;;;;;;;;7390378;19;20002;-70
2023/03/18 09:51:16;;;;;;;5.38;2.13;;;;;;;;;;7388380;19;20003;-70
2023/03/18 09:53:49;;;;;;;4.00;2.15;;;;;;;;;;7391030;19;20031;-68
2023/03/18 09:56:18;;;;;;;3.92;2.03;;;;;;;;;;7388030;19;20006;-69
2023/03/18 09:58:58;;;;;;;7.32;2.58;;;;;;;;;;7390188;19;20038;-71
2023/03/18 10:01:26;;;;;;;7.07;2.25;;;;;;;;;;7387869;19;20010;-69
2023/03/18 10:04:21;;;;;;;6.70;2.50;;;;;;;;;;7389856;19;20002;-69
2023/03/18 10:06:47;;;;;;;6.88;2.40;;;;;;;;;;7389568;19;19998;-69
2023/03/18 10:09:22;;;;;;;11.60;2.15;;;;;;;;;;7389709;19;20071;-70
2023/03/18 10:11:50;;;;;;;6.07;2.50;;;;;;;;;;7390303;19;20073;-69
2023/03/18 10:14:27;;;;;;;5.70;2.10;;;;;;;;;;7389401;19;20003;-69
2023/03/18 10:17:31;;;;;;;5.53;2.13;;;;;;;;;;7389226;19;20034;-70
2023/03/18 10:19:58;;;;;;;4.82;2.05;;;;;;;;;;7388537;19;20006;-69
2023/03/18 10:22:44;;;;;;;5.63;2.40;;;;;;;;;;7387844;19;19998;-68
2023/03/18 10:25:33;;;;;;;5.80;2.58;;;;;;;;;;7387380;19;20039;-69
2023/03/18 10:28:27;;;;;;;6.72;2.53;;;;;;;;;;7388888;19;20491;-68
2023/03/18 10:31:19;;;;;;;5.60;2.50;;;;;;;;;;7387254;19;20027;-70
2023/03/18 10:33:45;;;;;;;4.95;2.53;;;;;;;;;;7390038;19;20552;-70
2023/03/18 10:36:35;;;;;;;6.05;2.33;;;;;;;;;;7389042;19;20282;-69
2023/03/18 10:39:02;;;;;;;5.57;2.38;;;;;;;;;;7386915;19;20007;-69
2023/03/18 10:41:33;;;;;;;4.82;1.92;;;;;;;;;;7386120;19;20003;-69
2023/03/18 10:44:18;;;;;;;5.05;2.30;;;;;;;;;;7386858;19;20031;-69
2023/03/18 10:46:46;;;;;;;6.65;2.58;;;;;;;;;;7388455;19;20132;-68
2023/03/18 10:49:24;;;;;;;8.80;2.53;;;;;;;;;;7388266;19;20003;-70
2023/03/18 10:51:56;;;;;;;5.35;2.40;;;;;;;;;;7391115;19;20026;-68
2023/03/18 10:54:51;;;;;;;6.13;2.42;;;;;;;;;;7385374;19;20002;-70
2023/03/18 10:57:20;;;;;;;5.13;2.38;;;;;;;;;;7387878;19;20009;-70
2023/03/18 10:59:46;;;;;;;4.80;2.25;;;;;;;;;;7387769;19;20019;-70
2023/03/18 11:02:19;;;;;;;6.53;2.60;;;;;;;;;;7386123;19;20005;-69
2023/03/18 11:04:53;;;;;;;5.63;2.45;;;;;;;;;;7387649;19;19998;-70
2023/03/18 11:07:27;;;;;;;5.03;2.30;;;;;;;;;;7387961;19;20006;-71
2023/03/18 11:09:53;;;;;;;5.50;2.45;;;;;;;;;;7387958;19;20003;-70
2023/03/18 11:12:28;;;;;;;7.90;2.30;;;;;;;;;;7387301;19;20020;-69
2023/03/18 11:14:55;;;;;;;3.95;1.85;;;;;;;;;;7387580;19;20301;-70
2023/03/18 11:17:30;;;;;;;6.63;2.20;;;;;;;;;;7387466;19;20066;-70
2023/03/18 11:20:06;;;;;;;7.18;2.45;;;;;;;;;;7386878;19;20042;-69
2023/03/18 11:22:33;;;;;;;5.53;2.25;;;;;;;;;;7387785;19;20089;-70
2023/03/18 11:25:12;;;;;;;6.75;2.28;;;;;;;;;;7387377;19;19999;-69
2023/03/18 11:27:41;;;;;;;5.80;2.17;;;;;;;;;;7388131;19;20360;-70
2023/03/18 11:30:16;;;;;;;6.63;2.20;;;;;;;;;;7386256;19;20021;-71
2023/03/18 11:32:53;;;;;;;6.32;2.10;;;;;;;;;;7388034;19;20002;-68
2023/03/18 11:35:25;;;;;;;5.85;2.30;;;;;;;;;;7387295;19;20003;-69
2023/03/18 11:37:50;;;;;;;6.30;2.03;;;;;;;;;;7390421;19;20460;-70
2023/03/18 11:40:28;;;;;;;5.30;2.10;;;;;;;;;;7385262;19;20066;-70
2023/03/18 11:43:02;;;;;;;7.15;2.35;;;;;;;;;;7389055;19;20006;-70
2023/03/18 11:45:59;;;;;;;6.25;2.15;;;;;;;;;;7385653;19;20031;-70
2023/03/18 11:48:29;;;;;;;6.80;2.30;;;;;;;;;;7387088;19;20018;-70
2023/03/18 11:51:07;;;;;;;6.70;2.40;;;;;;;;;;7385547;19;20390;-69
2023/03/18 11:53:44;;;;;;;6.00;2.10;;;;;;;;;;7387409;19;20003;-68
2023/03/18 11:56:28;;;;;;;6.13;2.50;;;;;;;;;;7387168;19;20559;-70
2023/03/18 11:59:12;;;;;;;6.03;2.30;;;;;;;;;;7385231;19;20003;-69
2023/03/18 12:02:12;;;;;;;6.07;2.35;;;;;;;;;;7384189;19;20002;-69
2023/03/18 12:04:47;;;;;;;4.77;2.63;;;;;;;;;;7387378;19;19998;-71
2023/03/18 12:07:25;;;;;;;6.88;2.88;;;;;;;;;;7392356;19;20256;-69
2023/03/18 12:10:06;;;;;;;7.30;2.45;;;;;;;;;;7393378;19;20006;-70
2023/03/18 12:12:46;;;;;;;4.28;2.13;;;;;;;;;;7393146;19;19999;-70
2023/03/18 12:15:51;;;;;;;5.78;2.40;;;;;;;;;;7396018;19;20423;-69
2023/03/18 12:19:05;;;;;;;6.07;2.97;;;;;;;;;;7393382;19;20032;-71
2023/03/18 12:21:48;;;;;;;5.38;2.53;;;;;;;;;;7386142;19;20003;-70
2023/03/18 12:24:32;;;;;;;5.35;2.38;;;;;;;;;;7389293;19;20457;-70
2023/03/18 12:27:09;;;;;;;3.88;2.20;;;;;;;;;;7392484;19;20002;-71
2023/03/18 12:29:55;;;;;;;5.43;2.00;;;;;;;;;;7392797;19;20003;-72
2023/03/18 12:32:30;;;;;;;4.43;1.77;;;;;;;;;;7392055;19;20000;-70
2023/03/18 12:35:03;;;;;;;4.38;2.03;;;;;;;;;;7392278;19;20023;-71
2023/03/18 12:37:46;;;;;;;6.65;2.20;;;;;;;;;;7392428;19;20016;-71
2023/03/18 12:40:33;;;;;;;4.35;1.90;;;;;;;;;;7391108;19;20030;-70
2023/03/18 12:43:04;;;;;;;4.72;2.20;;;;;;;;;;7394641;19;20008;-70
2023/03/18 12:45:36;;;;;;;3.38;1.95;;;;;;;;;;7392501;19;20027;-70
2023/03/18 12:48:08;;;;;;;6.47;2.30;;;;;;;;;;7392103;19;20003;-70
2023/03/18 12:50:40;;;;;;;8.00;2.10;;;;;;;;;;7390238;19;20018;-69
2023/03/18 12:53:16;;;;;;;4.93;2.30;;;;;;;;;;7392021;19;19998;-69
2023/03/18 12:55:46;;;;;;;5.05;2.15;;;;;;;;;;7391948;19;20009;-69
2023/03/18 12:58:14;;;;;;;;;;;;;;;;;;7392787;19;19998;-70
2023/03/18 13:00:55;;;;;;;5.07;2.20;;;;;;;;;;7389864;19;20309;-69
2023/03/18 13:03:33;;;;;;;6.28;2.47;;;;;;;;;;7392675;19;19998;-70
2023/03/18 13:06:25;;;;;;;6.43;2.50;;;;;;;;;;7390352;19;19998;-69
2023/03/18 13:08:58;;;;;;;7.25;2.55;;;;;;;;;;7392657;19;20007;-70
2023/03/18 13:11:48;;;;;;;6.20;2.42;;;;;;;;;;7387589;19;20006;-70
2023/03/18 13:14:23;;;;;;;4.97;2.20;;;;;;;;;;7391063;19;20002;-71
2023/03/18 13:16:49;;;;;;;7.13;2.30;;;;;;;;;;7390035;19;20036;-69
2023/03/18 13:19:17;;;;;;;4.97;2.15;;;;;;;;;;7390118;19;20003;-70
2023/03/18 13:21:47;;;;;;;7.40;2.45;;;;;;;;;;7387874;19;20009;-69
2023/03/18 13:24:36;;;;;;;5.75;2.50;;;;;;;;;;7390943;19;20384;-69
2023/03/18 13:27:32;;;;;;;7.20;2.88;;;;;;;;;;7390732;19;20480;-70
2023/03/18 13:30:11;;;;;;;8.05;2.60;;;;;;;;;;7390879;19;20006;-69
2023/03/18 13:33:27;;;;;;;5.13;2.50;;;;;;;;;;7392344;19;19995;-69
2023/03/18 13:36:14;;;;;;;8.43;3.00;;;;;;;;;;7385915;19;20006;-70
2023/03/18 13:38:58;;;;;;;5.15;2.47;;;;;;;;;;7390550;19;20007;-69
2023/03/18 13:41:32;;;;;;;8.07;2.70;;;;;;;;;;7387798;19;20013;-69
2023/03/18 13:44:00;;;;;;;10.18;2.88;;;;;;;;;;7390000;19;20442;-69
2023/03/18 13:46:29;;;;;;;7.10;2.85;;;;;;;;;;7390258;19;20026;-70
2023/03/18 13:49:00;;;;;;;7.78;2.17;;;;;;;;;;7393631;19;20002;-70
2023/03/18 13:51:26;;;;;;;8.65;2.65;;;;;;;;;;7388012;19;20011;-70
2023/03/18 13:53:55;;;;;;;4.85;2.40;;;;;;;;;;7389944;19;20010;-69
2023/03/18 13:56:31;;;;;;;5.40;2.35;;;;;;;;;;7389940;19;20006;-69
2023/03/18 13:59:01;;;;;;;6.55;2.65;;;;;;;;;;7389896;19;20535;-70
2023/03/18 14:01:46;;;;;;;4.87;2.50;;;;;;;;;;7387759;19;20006;-71
2023/03/18 14:04:15;;;;;;;6.40;2.60;;;;;;;;;;7390326;19;20595;-70
2023/03/18 14:06:54;;;;;;;7.28;2.47;;;;;;;;;;7390057;19;20010;-70
2023/03/18 14:09:28;;;;;;;6.53;2.33;;;;;;;;;;7389105;19;20006;-70
2023/03/18 14:12:02;;;;;;;5.93;2.10;;;;;;;;;;7388037;19;20471;-70
2023/03/18 14:15:04;;;;;;;5.28;2.17;;;;;;;;;;7389123;19;19998;-70
2023/03/18 14:17:36;;;;;;;4.95;2.53;;;;;;;;;;7389951;19;19994;-70
2023/03/18 14:20:23;;;;;;;6.13;2.13;;;;;;;;;;7392732;19;20002;-70
2023/03/18 14:22:51;;;;;;;6.97;1.98;;;;;;;;;;7389100;19;20396;-70
2023/03/18 14:25:17;;;;;;;3.95;1.98;;;;;;;;;;7382084;19;20414;-70
2023/03/18 14:27:56;;;;;;;6.25;2.20;;;;;;;;;;7387507;19;19998;-70
2023/03/18 14:30:30;;;;;;;7.93;2.30;;;;;;;;;;7385303;19;20006;-70
2023/03/18 14:32:58;;;;;;;5.72;2.00;;;;;;;;;;7386063;19;20036;-70
2023/03/18 14:35:27;;;;;;;6.95;2.33;;;;;;;;;;7387125;19;20015;-70
2023/03/18 14:38:11;;;;;;;5.82;2.30;;;;;;;;;;7385204;19;20003;-70
2023/03/18 14:40:41;;;;;;;5.13;2.08;;;;;;;;;;7386753;19;20002;-71
2023/03/18 14:43:18;;;;;;;3.72;2.00;;;;;;;;;;7387364;19;20335;-70
2023/03/18 14:45:48;;;;;;;4.90;1.92;;;;;;;;;;7386802;19;19999;-70
2023/03/18 14:48:27;;;;;;;5.47;2.28;;;;;;;;;;7388380;19;20006;-70
2023/03/18 14:50:55;;;;;;;6.63;2.50;;;;;;;;;;7386273;19;20261;-70